SETU/TUA METAR and TAF weather

Enter ICAO airport designator
Station Type Date Time Source
SETU METAR 2022/01/28 20:00 UTC NOAA

SETU 282000Z 30012KT 9999 BKN020 17/11 Q1029


Station Type Date Time Source
SETU Decoded METAR 2022/01/28 20:00 UTC NOAA

Tulcan / El Rosal, Ecuador (SETU) 00-49N 077-42W
Jan 28, 2022 - 03:00 PM EST / 2022.01.28 2000 UTC
Wind: from the WNW (300 degrees) at 14 MPH (12 KT):0
Visibility: greater than 7 mile(s):0
Sky conditions: mostly cloudy
Temperature: 62 F (17 C)
Dew Point: 51 F (11 C)
Relative Humidity: 67%
Pressure (altimeter): 30.39 in. Hg (1029 hPa)
ob: SETU 282000Z 30012KT 9999 BKN020 17/11 Q1029
cycle: 20

Station Type Date Time Source
SETU TAF UTC NOAA

Error!

Example: see airport list